Time;durP1;ratioP1;P1;durP2;ratioP2;P2;SDS_P1;SDS_P2;PMS_P1;PMS_P2;Temp;Humidity;BMP_temperature;BMP_pressure;BME280_temperature;BME280_humidity;BME280_pressure;Samples;Min_cycle;Max_cycle;Signal;HPM_P1;HPM_P2
2023/10/28 00:01:12;;;;;;;47.38;32.20;;;;;;;;;;5157902;27;20042;-82
2023/10/28 00:03:38;;;;;;;59.17;34.13;;;;;;;;;;5158691;27;20466;-82
2023/10/28 00:06:04;;;;;;;44.90;30.98;;;;;;;;;;5157583;27;20038;-82
2023/10/28 00:08:31;;;;;;;43.20;29.95;;;;;;;;;;5158327;27;20049;-83
2023/10/28 00:10:57;;;;;;;46.97;29.85;;;;;;;;;;5157775;27;20092;-82
2023/10/28 00:13:23;;;;;;;51.83;32.13;;;;;;;;;;5176052;27;20053;-83
2023/10/28 00:15:49;;;;;;;41.45;28.20;;;;;;;;;;5157408;27;20046;-82
2023/10/28 00:18:15;;;;;;;42.00;28.15;;;;;;;;;;5157983;27;20046;-82
2023/10/28 00:20:44;;;;;;;43.55;30.77;;;;;;;;;;5157661;27;20038;-83
2023/10/28 00:23:11;;;;;;;42.05;28.83;;;;;;;;;;5175884;27;20046;-82
2023/10/28 00:25:44;;;;;;;40.67;29.67;;;;;;;;;;5159016;27;20038;-83
2023/10/28 00:28:11;;;;;;;41.42;29.00;;;;;;;;;;5159666;27;20050;-82
2023/10/28 00:30:40;;;;;;;38.58;28.33;;;;;;;;;;5180068;27;20042;-82
2023/10/28 00:33:06;;;;;;;38.42;29.52;;;;;;;;;;5161482;27;20052;-83
2023/10/28 00:35:33;;;;;;;44.92;30.83;;;;;;;;;;5144547;27;20129;-82
2023/10/28 00:37:59;;;;;;;42.97;28.20;;;;;;;;;;5127272;27;20050;-82
2023/10/28 00:40:26;;;;;;;39.38;28.73;;;;;;;;;;5179932;27;20386;-82
2023/10/28 00:42:52;;;;;;;41.15;27.77;;;;;;;;;;5179835;27;20133;-82
2023/10/28 00:45:18;;;;;;;38.70;26.67;;;;;;;;;;5180424;27;20046;-82
2023/10/28 00:47:46;;;;;;;41.00;27.70;;;;;;;;;;5144050;27;20049;-82
2023/10/28 00:50:14;;;;;;;42.03;27.60;;;;;;;;;;5179712;27;20050;-82
2023/10/28 00:52:47;;;;;;;41.53;27.38;;;;;;;;;;5161211;27;20485;-82
2023/10/28 00:55:14;;;;;;;36.67;26.20;;;;;;;;;;5143928;27;20101;-82
2023/10/28 00:57:41;;;;;;;41.80;27.55;;;;;;;;;;5143106;27;20057;-82
2023/10/28 01:00:08;;;;;;;41.38;27.75;;;;;;;;;;5179552;27;20054;-82
2023/10/28 01:02:38;;;;;;;38.53;26.70;;;;;;;;;;5161122;27;20174;-82
2023/10/28 01:05:05;;;;;;;35.92;24.75;;;;;;;;;;5161455;27;20054;-82
2023/10/28 01:07:31;;;;;;;37.70;24.70;;;;;;;;;;5179697;27;20042;-82
2023/10/28 01:09:58;;;;;;;39.67;24.55;;;;;;;;;;5160727;27;20042;-82
2023/10/28 01:12:26;;;;;;;35.08;24.75;;;;;;;;;;5179602;27;20042;-82
2023/10/28 01:14:52;;;;;;;42.53;25.38;;;;;;;;;;5179280;27;20042;-82
2023/10/28 01:17:21;;;;;;;35.97;24.20;;;;;;;;;;5160559;27;20042;-83
2023/10/28 01:19:47;;;;;;;36.05;24.17;;;;;;;;;;5160544;27;20038;-82
2023/10/28 01:22:13;;;;;;;31.80;22.55;;;;;;;;;;5179131;27;20042;-82
2023/10/28 01:24:40;;;;;;;33.28;21.88;;;;;;;;;;5161175;27;20459;-82
2023/10/28 01:27:09;;;;;;;32.72;20.63;;;;;;;;;;5160336;27;20424;-82
2023/10/28 01:29:35;;;;;;;33.17;20.98;;;;;;;;;;5160884;27;20386;-82
2023/10/28 01:32:04;;;;;;;32.83;21.20;;;;;;;;;;5160541;27;20043;-82
2023/10/28 01:34:33;;;;;;;27.65;19.95;;;;;;;;;;5160772;27;20038;-83
2023/10/28 01:37:00;;;;;;;35.88;21.40;;;;;;;;;;5179013;27;20050;-82
2023/10/28 01:39:26;;;;;;;28.20;18.85;;;;;;;;;;5142541;27;20081;-82
2023/10/28 01:41:52;;;;;;;30.70;19.17;;;;;;;;;;5160059;27;20061;-82
2023/10/28 01:44:18;;;;;;;28.83;20.65;;;;;;;;;;5143916;27;20504;-82
2023/10/28 01:46:44;;;;;;;31.67;19.42;;;;;;;;;;5178676;27;20126;-82
2023/10/28 01:49:11;;;;;;;26.67;18.88;;;;;;;;;;5160226;27;20423;-82
2023/10/28 01:51:37;;;;;;;29.25;18.95;;;;;;;;;;5142954;27;20046;-82
2023/10/28 01:54:03;;;;;;;30.60;18.75;;;;;;;;;;5159726;27;20042;-82
2023/10/28 01:56:29;;;;;;;27.15;19.85;;;;;;;;;;5159174;27;20101;-82
2023/10/28 01:58:56;;;;;;;24.58;18.88;;;;;;;;;;5177942;27;20050;-83
2023/10/28 02:01:25;;;;;;;26.40;17.55;;;;;;;;;;5159848;27;20050;-82
2023/10/28 02:03:51;;;;;;;25.95;18.20;;;;;;;;;;5160583;27;20061;-82
2023/10/28 02:06:17;;;;;;;28.55;17.23;;;;;;;;;;5178314;27;20050;-83
2023/10/28 02:08:43;;;;;;;25.65;17.77;;;;;;;;;;5159835;27;20045;-82
2023/10/28 02:11:09;;;;;;;24.55;16.98;;;;;;;;;;5142516;27;20142;-82
2023/10/28 02:13:36;;;;;;;25.60;17.52;;;;;;;;;;5142973;27;20046;-82
2023/10/28 02:16:02;;;;;;;22.95;17.42;;;;;;;;;;5160160;27;20477;-82
2023/10/28 02:18:28;;;;;;;30.17;17.30;;;;;;;;;;5142503;27;20048;-82
2023/10/28 02:20:54;;;;;;;24.75;17.52;;;;;;;;;;5159921;27;20061;-82
2023/10/28 02:23:20;;;;;;;27.65;17.15;;;;;;;;;;5178703;27;20046;-82
2023/10/28 02:25:46;;;;;;;24.70;17.23;;;;;;;;;;5159360;27;20045;-82
2023/10/28 02:28:13;;;;;;;26.08;16.27;;;;;;;;;;5159508;27;20491;-82
2023/10/28 02:30:40;;;;;;;22.65;16.30;;;;;;;;;;5159211;27;20060;-82
2023/10/28 02:33:06;;;;;;;22.17;16.27;;;;;;;;;;5159396;27;20042;-83
2023/10/28 02:35:33;;;;;;;25.00;16.20;;;;;;;;;;5141934;27;20054;-82
2023/10/28 02:37:59;;;;;;;24.77;15.48;;;;;;;;;;5159576;27;20114;-82
2023/10/28 02:40:25;;;;;;;28.17;17.90;;;;;;;;;;5177612;27;20042;-82
2023/10/28 02:42:51;;;;;;;28.08;16.52;;;;;;;;;;5142253;27;20061;-82
2023/10/28 02:45:17;;;;;;;26.50;17.65;;;;;;;;;;5124774;27;20041;-82
2023/10/28 02:47:43;;;;;;;26.88;17.02;;;;;;;;;;5142636;27;20049;-82
2023/10/28 02:50:10;;;;;;;27.60;17.00;;;;;;;;;;5158800;27;20050;-82
2023/10/28 02:52:36;;;;;;;26.02;17.27;;;;;;;;;;5141549;27;20132;-82
2023/10/28 02:55:02;;;;;;;32.65;18.50;;;;;;;;;;5159228;27;20096;-82
2023/10/28 02:57:28;;;;;;;21.00;15.77;;;;;;;;;;5158505;27;20443;-83
2023/10/28 02:59:54;;;;;;;29.27;16.58;;;;;;;;;;5177322;27;20061;-83
2023/10/28 03:02:21;;;;;;;24.13;16.27;;;;;;;;;;5158142;27;20513;-82
2023/10/28 03:04:47;;;;;;;28.50;18.13;;;;;;;;;;5158760;27;20046;-82
2023/10/28 03:07:13;;;;;;;28.58;17.05;;;;;;;;;;5177572;27;20041;-82
2023/10/28 03:09:39;;;;;;;35.50;18.17;;;;;;;;;;5158659;27;20054;-82
2023/10/28 03:12:06;;;;;;;23.00;15.73;;;;;;;;;;5158386;27;20046;-82
2023/10/28 03:14:32;;;;;;;25.35;16.45;;;;;;;;;;5142159;27;20049;-83
2023/10/28 03:16:59;;;;;;;27.17;15.40;;;;;;;;;;5158291;27;20035;-82
2023/10/28 03:19:25;;;;;;;19.00;15.43;;;;;;;;;;5141189;27;20049;-82
2023/10/28 03:21:51;;;;;;;24.58;15.05;;;;;;;;;;5141194;27;20137;-82
2023/10/28 03:24:17;;;;;;;23.95;15.05;;;;;;;;;;5157832;27;20042;-82
2023/10/28 03:26:43;;;;;;;25.42;14.80;;;;;;;;;;5158399;27;20434;-82
2023/10/28 03:29:09;;;;;;;25.48;15.95;;;;;;;;;;5141890;27;20106;-82
2023/10/28 03:31:35;;;;;;;26.25;15.07;;;;;;;;;;5158082;27;20085;-82
2023/10/28 03:34:01;;;;;;;28.13;16.30;;;;;;;;;;5158058;27;20393;-82
2023/10/28 03:36:27;;;;;;;28.83;14.50;;;;;;;;;;5123575;27;20069;-82
2023/10/28 03:38:55;;;;;;;24.13;14.75;;;;;;;;;;5157801;27;20042;-82
2023/10/28 03:41:21;;;;;;;27.88;15.00;;;;;;;;;;5157973;27;20039;-82
2023/10/28 03:43:48;;;;;;;24.13;15.00;;;;;;;;;;5176310;27;20053;-82
2023/10/28 03:46:20;;;;;;;23.38;14.48;;;;;;;;;;5157849;27;20043;-82
2023/10/28 03:48:46;;;;;;;23.20;14.27;;;;;;;;;;5176340;27;20050;-82
2023/10/28 03:51:12;;;;;;;25.45;13.80;;;;;;;;;;5157905;27;20120;-82
2023/10/28 03:53:38;;;;;;;25.90;14.50;;;;;;;;;;5157822;27;20129;-82
2023/10/28 03:56:05;;;;;;;23.83;13.85;;;;;;;;;;5140060;27;20050;-82
2023/10/28 03:58:32;;;;;;;24.88;14.00;;;;;;;;;;5177190;27;20114;-82
2023/10/28 04:00:59;;;;;;;25.05;15.50;;;;;;;;;;5158723;27;20085;-82
2023/10/28 04:03:25;;;;;;;21.35;14.10;;;;;;;;;;5162746;27;20490;-82
2023/10/28 04:05:55;;;;;;;21.67;14.70;;;;;;;;;;5183227;27;20038;-82
2023/10/28 04:08:21;;;;;;;26.13;14.98;;;;;;;;;;5164451;27;20105;-82
2023/10/28 04:10:47;;;;;;;26.95;13.57;;;;;;;;;;5164371;27;20392;-82
2023/10/28 04:13:13;;;;;;;28.02;14.63;;;;;;;;;;5147444;27;20091;-82
2023/10/28 04:15:39;;;;;;;23.67;14.68;;;;;;;;;;5183629;27;20053;-82
2023/10/28 04:18:06;;;;;;;22.60;14.02;;;;;;;;;;5147819;27;20430;-82
2023/10/28 04:20:32;;;;;;;30.35;15.35;;;;;;;;;;5164466;27;20129;-82
2023/10/28 04:22:58;;;;;;;22.65;15.02;;;;;;;;;;5182958;27;20493;-82
2023/10/28 04:25:24;;;;;;;28.65;15.15;;;;;;;;;;5164331;27;20046;-82
2023/10/28 04:27:50;;;;;;;25.25;15.48;;;;;;;;;;5164958;27;20049;-82
2023/10/28 04:30:18;;;;;;;23.00;15.95;;;;;;;;;;5164562;27;20045;-82
2023/10/28 04:32:44;;;;;;;23.85;14.27;;;;;;;;;;5182880;27;20486;-82
2023/10/28 04:35:10;;;;;;;28.25;15.65;;;;;;;;;;5165316;27;20109;-82
2023/10/28 04:37:37;;;;;;;24.13;14.18;;;;;;;;;;5164227;27;20038;-82
2023/10/28 04:40:06;;;;;;;21.55;15.50;;;;;;;;;;5164512;27;20046;-82
2023/10/28 04:42:32;;;;;;;27.17;16.17;;;;;;;;;;5164388;27;20394;-82
2023/10/28 04:44:58;;;;;;;26.73;15.27;;;;;;;;;;5164361;27;20049;-81
2023/10/28 04:47:24;;;;;;;27.67;15.88;;;;;;;;;;5164220;27;20048;-82
2023/10/28 04:49:51;;;;;;;23.10;13.10;;;;;;;;;;5147126;27;20534;-82
2023/10/28 04:52:17;;;;;;;21.08;11.85;;;;;;;;;;5164269;27;20049;-82
2023/10/28 04:54:43;;;;;;;19.15;13.80;;;;;;;;;;5164873;27;20374;-82
2023/10/28 04:57:09;;;;;;;22.98;14.23;;;;;;;;;;5146674;27;20058;-82
2023/10/28 04:59:37;;;;;;;22.08;13.27;;;;;;;;;;5163855;27;20480;-82
2023/10/28 05:02:03;;;;;;;23.55;12.95;;;;;;;;;;5182670;27;20129;-82
2023/10/28 05:04:29;;;;;;;24.08;13.30;;;;;;;;;;5164140;27;20122;-82
2023/10/28 05:06:55;;;;;;;19.25;11.52;;;;;;;;;;5147830;27;20061;-82
2023/10/28 05:09:21;;;;;;;19.33;12.38;;;;;;;;;;5164431;27;20056;-82
2023/10/28 05:11:54;;;;;;;20.58;12.27;;;;;;;;;;5164177;27;20046;-82
2023/10/28 05:14:21;;;;;;;20.85;11.93;;;;;;;;;;5161334;27;20176;-82
2023/10/28 05:16:47;;;;;;;18.52;10.60;;;;;;;;;;5143008;27;20045;-82
2023/10/28 05:19:13;;;;;;;16.85;9.55;;;;;;;;;;5160098;27;20133;-82
2023/10/28 05:21:39;;;;;;;16.10;9.93;;;;;;;;;;5160630;27;20042;-82
2023/10/28 05:24:05;;;;;;;19.20;9.65;;;;;;;;;;5160755;27;20046;-82
2023/10/28 05:26:32;;;;;;;18.95;9.48;;;;;;;;;;5161253;27;20121;-82
2023/10/28 05:28:58;;;;;;;14.93;9.15;;;;;;;;;;5125933;27;20082;-82
2023/10/28 05:31:27;;;;;;;16.50;8.95;;;;;;;;;;5179436;27;20042;-81
2023/10/28 05:33:53;;;;;;;18.63;9.32;;;;;;;;;;5143959;27;20097;-82
2023/10/28 05:36:19;;;;;;;16.13;9.10;;;;;;;;;;5178721;27;20042;-82
2023/10/28 05:38:45;;;;;;;17.50;8.35;;;;;;;;;;5160338;27;20046;-82
2023/10/28 05:41:11;;;;;;;11.75;8.07;;;;;;;;;;5160333;27;20035;-81
2023/10/28 05:43:38;;;;;;;11.25;8.38;;;;;;;;;;5178751;27;20401;-82
2023/10/28 05:46:04;;;;;;;13.70;7.88;;;;;;;;;;5160047;27;20121;-82
2023/10/28 05:48:32;;;;;;;14.20;8.02;;;;;;;;;;5142783;27;20049;-82
2023/10/28 05:50:58;;;;;;;12.45;8.07;;;;;;;;;;5159785;27;20089;-82
2023/10/28 05:53:24;;;;;;;12.38;7.72;;;;;;;;;;5178454;27;20046;-82
2023/10/28 05:55:50;;;;;;;10.43;7.18;;;;;;;;;;5159841;27;20038;-82
2023/10/28 05:58:17;;;;;;;9.38;6.65;;;;;;;;;;5178502;27;20085;-82
2023/10/28 06:00:44;;;;;;;10.68;7.22;;;;;;;;;;5178402;27;20046;-82
2023/10/28 06:03:12;;;;;;;11.45;6.85;;;;;;;;;;5178408;27;20093;-82
2023/10/28 06:05:38;;;;;;;13.15;7.38;;;;;;;;;;5159958;27;20042;-82
2023/10/28 06:08:06;;;;;;;11.07;7.32;;;;;;;;;;5159881;27;20046;-82
2023/10/28 06:10:34;;;;;;;10.43;6.72;;;;;;;;;;5159766;27;20046;-82
2023/10/28 06:13:01;;;;;;;9.82;6.03;;;;;;;;;;5159763;27;20049;-82
2023/10/28 06:15:27;;;;;;;9.90;6.70;;;;;;;;;;5159751;27;20058;-80
2023/10/28 06:17:53;;;;;;;11.60;5.82;;;;;;;;;;5178486;27;20367;-82
2023/10/28 06:20:20;;;;;;;12.10;6.75;;;;;;;;;;5160441;27;20057;-82
2023/10/28 06:22:46;;;;;;;11.73;6.13;;;;;;;;;;5159060;27;20042;-82
2023/10/28 06:25:14;;;;;;;10.05;5.78;;;;;;;;;;5142581;27;20046;-82
2023/10/28 06:27:40;;;;;;;11.77;5.68;;;;;;;;;;5160215;27;20042;-82
2023/10/28 06:30:07;;;;;;;11.25;6.15;;;;;;;;;;5159368;27;20050;-82
2023/10/28 06:32:33;;;;;;;8.52;5.72;;;;;;;;;;5142119;27;20050;-82
2023/10/28 06:34:59;;;;;;;13.00;6.43;;;;;;;;;;5141775;27;20564;-83
2023/10/28 06:37:25;;;;;;;11.80;6.05;;;;;;;;;;5158991;27;20141;-83
2023/10/28 06:39:52;;;;;;;9.82;5.78;;;;;;;;;;5159115;27;20046;-82
2023/10/28 06:42:18;;;;;;;6.88;5.60;;;;;;;;;;5177533;27;20042;-82
2023/10/28 06:44:44;;;;;;;9.48;6.15;;;;;;;;;;5178107;27;20046;-82
2023/10/28 06:47:10;;;;;;;9.60;5.45;;;;;;;;;;5159063;27;20042;-82
2023/10/28 06:49:37;;;;;;;7.55;4.25;;;;;;;;;;5141790;27;20038;-82
2023/10/28 06:52:03;;;;;;;7.80;4.40;;;;;;;;;;5141547;27;20057;-82
2023/10/28 06:54:29;;;;;;;8.25;4.50;;;;;;;;;;5159591;27;20057;-82
2023/10/28 06:56:55;;;;;;;6.93;4.10;;;;;;;;;;5141013;27;20058;-82
2023/10/28 06:59:23;;;;;;;9.55;4.63;;;;;;;;;;5177212;27;20490;-82
2023/10/28 07:01:50;;;;;;;7.00;3.63;;;;;;;;;;5177191;27;20050;-82
2023/10/28 07:04:16;;;;;;;9.27;3.67;;;;;;;;;;5158706;27;20500;-82
2023/10/28 07:06:45;;;;;;;8.88;3.75;;;;;;;;;;5158594;27;20034;-82
2023/10/28 07:09:11;;;;;;;6.10;3.45;;;;;;;;;;5159088;27;20046;-82
2023/10/28 07:11:38;;;;;;;6.70;3.70;;;;;;;;;;5158483;27;20111;-82
2023/10/28 07:14:04;;;;;;;4.47;2.70;;;;;;;;;;5158313;27;20125;-82
2023/10/28 07:16:31;;;;;;;5.15;2.83;;;;;;;;;;5177663;27;20339;-81
2023/10/28 07:18:57;;;;;;;6.13;3.15;;;;;;;;;;5159318;27;20077;-82
2023/10/28 07:21:23;;;;;;;5.50;3.50;;;;;;;;;;5158159;27;20042;-81
2023/10/28 07:23:49;;;;;;;3.88;3.33;;;;;;;;;;5158451;27;20042;-81
2023/10/28 07:26:16;;;;;;;5.50;3.60;;;;;;;;;;5142121;27;20363;-81
2023/10/28 07:28:42;;;;;;;5.22;3.50;;;;;;;;;;5159214;27;20053;-82
2023/10/28 07:31:08;;;;;;;6.70;4.28;;;;;;;;;;5141132;27;20122;-82
2023/10/28 07:33:35;;;;;;;7.53;3.70;;;;;;;;;;5158678;27;20094;-82
2023/10/28 07:36:04;;;;;;;10.65;3.97;;;;;;;;;;5176761;27;20493;-82
2023/10/28 07:38:31;;;;;;;5.47;4.22;;;;;;;;;;5157445;27;20038;-82
2023/10/28 07:40:57;;;;;;;8.45;4.55;;;;;;;;;;5177094;27;20504;-82
2023/10/28 07:43:24;;;;;;;4.82;4.00;;;;;;;;;;5141030;27;20046;-82
2023/10/28 07:45:50;;;;;;;5.22;3.95;;;;;;;;;;5158404;27;20423;-82
2023/10/28 07:48:16;;;;;;;5.63;3.92;;;;;;;;;;5157768;27;20046;-84
2023/10/28 07:50:43;;;;;;;9.18;4.30;;;;;;;;;;5158901;27;20050;-82
2023/10/28 07:53:09;;;;;;;6.60;3.83;;;;;;;;;;5158225;27;20147;-82
2023/10/28 07:55:38;;;;;;;8.50;4.13;;;;;;;;;;5157752;27;20042;-82
2023/10/28 07:58:08;;;;;;;7.40;4.05;;;;;;;;;;5141482;27;20094;-82
2023/10/28 08:00:37;;;;;;;6.82;3.92;;;;;;;;;;5157930;27;20174;-82
2023/10/28 08:03:03;;;;;;;11.55;4.95;;;;;;;;;;5157842;27;20082;-82
2023/10/28 08:05:30;;;;;;;11.25;5.25;;;;;;;;;;5157754;27;20505;-82
2023/10/28 08:07:56;;;;;;;9.10;4.10;;;;;;;;;;5157889;27;20038;-82
2023/10/28 08:10:22;;;;;;;5.93;4.10;;;;;;;;;;5176162;27;20049;-82
2023/10/28 08:13:00;;;;;;;8.23;3.95;;;;;;;;;;5157792;27;20039;-82
2023/10/28 08:15:29;;;;;;;8.15;3.72;;;;;;;;;;5176173;27;20089;-82
2023/10/28 08:17:55;;;;;;;6.60;4.28;;;;;;;;;;5140172;27;20480;-82
2023/10/28 08:20:22;;;;;;;5.43;4.03;;;;;;;;;;5141288;27;20057;-82
2023/10/28 08:22:48;;;;;;;9.45;4.03;;;;;;;;;;5141267;27;20046;-82
2023/10/28 08:25:17;;;;;;;8.95;4.22;;;;;;;;;;5158470;27;20050;-82
2023/10/28 08:27:44;;;;;;;4.47;3.10;;;;;;;;;;5157906;27;20069;-82
2023/10/28 08:30:11;;;;;;;4.28;3.35;;;;;;;;;;5157581;27;20038;-82
2023/10/28 08:32:38;;;;;;;7.57;3.58;;;;;;;;;;5157720;27;20042;-82
2023/10/28 08:35:04;;;;;;;7.78;4.00;;;;;;;;;;5140891;27;20050;-82
2023/10/28 08:37:31;;;;;;;5.57;4.07;;;;;;;;;;5140088;27;20082;-82
2023/10/28 08:39:57;;;;;;;6.45;3.45;;;;;;;;;;5140258;27;20110;-82
2023/10/28 08:42:23;;;;;;;4.97;2.90;;;;;;;;;;5175890;27;20045;-82
2023/10/28 08:44:51;;;;;;;7.68;3.65;;;;;;;;;;5157523;27;20058;-82
2023/10/28 08:47:18;;;;;;;6.55;3.33;;;;;;;;;;5158134;27;20043;-82
2023/10/28 08:49:47;;;;;;;5.78;3.10;;;;;;;;;;5160769;27;20046;-82
2023/10/28 08:52:18;;;;;;;7.18;3.72;;;;;;;;;;5143759;27;20061;-82
2023/10/28 08:54:45;;;;;;;6.65;3.08;;;;;;;;;;5180271;27;20110;-82
2023/10/28 08:57:13;;;;;;;5.07;3.03;;;;;;;;;;5160868;27;20058;-82
2023/10/28 08:59:39;;;;;;;6.45;3.78;;;;;;;;;;5161863;27;20062;-82
2023/10/28 09:02:08;;;;;;;7.47;3.72;;;;;;;;;;5160901;27;20129;-82
2023/10/28 09:04:34;;;;;;;6.75;3.22;;;;;;;;;;5161096;27;20050;-82
2023/10/28 09:07:04;;;;;;;5.25;3.40;;;;;;;;;;5161003;27;20122;-82
2023/10/28 09:09:30;;;;;;;5.22;3.53;;;;;;;;;;5161451;27;20071;-82
2023/10/28 09:12:00;;;;;;;5.88;3.17;;;;;;;;;;5143810;27;20129;-82
2023/10/28 09:14:26;;;;;;;6.00;3.05;;;;;;;;;;5161291;27;20071;-82
2023/10/28 09:16:55;;;;;;;6.32;2.95;;;;;;;;;;5160780;27;20039;-82
2023/10/28 09:19:21;;;;;;;7.45;3.05;;;;;;;;;;5179470;27;20450;-82
2023/10/28 09:21:48;;;;;;;7.82;2.75;;;;;;;;;;5160821;27;20042;-82
2023/10/28 09:24:15;;;;;;;7.68;3.60;;;;;;;;;;5160944;27;20050;-82
2023/10/28 09:26:41;;;;;;;5.55;3.20;;;;;;;;;;5161020;27;20050;-82
2023/10/28 09:29:07;;;;;;;5.70;2.42;;;;;;;;;;5143466;27;20398;-82
2023/10/28 09:31:34;;;;;;;8.43;2.65;;;;;;;;;;5160536;27;20053;-82
2023/10/28 09:34:01;;;;;;;6.68;2.53;;;;;;;;;;5142937;27;20047;-82
2023/10/28 09:36:30;;;;;;;6.10;2.90;;;;;;;;;;5161089;27;20095;-81
2023/10/28 09:38:56;;;;;;;4.55;2.88;;;;;;;;;;5143127;27;20042;-82
2023/10/28 09:41:24;;;;;;;5.57;3.03;;;;;;;;;;5160352;27;20046;-82
2023/10/28 09:43:50;;;;;;;6.57;2.80;;;;;;;;;;5160373;27;20043;-82
2023/10/28 09:46:20;;;;;;;4.90;2.53;;;;;;;;;;5160339;27;20081;-82
2023/10/28 09:48:48;;;;;;;8.35;2.90;;;;;;;;;;5160297;27;20390;-81
2023/10/28 09:51:24;;;;;;;6.47;2.22;;;;;;;;;;5160030;27;20072;-82
2023/10/28 09:53:56;;;;;;;6.00;2.67;;;;;;;;;;5160254;27;20497;-82
2023/10/28 09:56:24;;;;;;;3.80;2.28;;;;;;;;;;5160014;27;20136;-81
2023/10/28 09:58:56;;;;;;;5.07;2.83;;;;;;;;;;5160128;27;20052;-82
2023/10/28 10:01:30;;;;;;;11.45;3.42;;;;;;;;;;5160220;27;20091;-82
2023/10/28 10:04:04;;;;;;;2.90;1.92;;;;;;;;;;5160356;27;20092;-82
2023/10/28 10:06:30;;;;;;;6.65;2.75;;;;;;;;;;5160682;27;20046;-81
2023/10/28 10:08:56;;;;;;;4.13;1.80;;;;;;;;;;5159689;27;20129;-82
2023/10/28 10:11:23;;;;;;;5.47;2.45;;;;;;;;;;5125537;27;20038;-82
2023/10/28 10:13:49;;;;;;;8.00;2.40;;;;;;;;;;5178798;27;20050;-82
2023/10/28 10:16:36;;;;;;;3.22;1.70;;;;;;;;;;5159648;27;20073;-82
2023/10/28 10:19:10;;;;;;;4.70;1.83;;;;;;;;;;5142033;27;20509;-82
2023/10/28 10:21:36;;;;;;;4.30;1.90;;;;;;;;;;5160004;27;20046;-82
2023/10/28 10:24:06;;;;;;;5.55;2.20;;;;;;;;;;5159595;27;20042;-82
2023/10/28 10:26:33;;;;;;;6.13;2.10;;;;;;;;;;5141935;27;20046;-82
2023/10/28 10:29:02;;;;;;;5.90;1.70;;;;;;;;;;5159392;27;20485;-82
2023/10/28 10:31:32;;;;;;;6.03;1.95;;;;;;;;;;5142137;27;20042;-82
2023/10/28 10:34:08;;;;;;;5.63;2.08;;;;;;;;;;5177730;27;20389;-83
2023/10/28 10:36:41;;;;;;;3.25;1.90;;;;;;;;;;5159335;27;20446;-82
2023/10/28 10:39:10;;;;;;;7.45;2.47;;;;;;;;;;5142108;27;20046;-82
2023/10/28 10:41:37;;;;;;;6.75;1.85;;;;;;;;;;5159359;27;20050;-82
2023/10/28 10:44:22;;;;;;;4.20;2.08;;;;;;;;;;5159181;27;20048;-82
2023/10/28 10:46:51;;;;;;;4.72;2.58;;;;;;;;;;5142654;27;20053;-82
2023/10/28 10:49:17;;;;;;;4.18;2.38;;;;;;;;;;5158603;27;20042;-82
2023/10/28 10:51:45;;;;;;;5.07;2.45;;;;;;;;;;5142145;27;20046;-82
2023/10/28 10:54:11;;;;;;;7.13;2.00;;;;;;;;;;5141765;27;20564;-82
2023/10/28 10:56:37;;;;;;;8.30;2.33;;;;;;;;;;5137244;27;20059;-82
2023/10/28 10:59:03;;;;;;;5.30;2.15;;;;;;;;;;5137735;27;20510;-82
2023/10/28 11:01:29;;;;;;;3.70;2.15;;;;;;;;;;5155255;27;20054;-82
2023/10/28 11:03:57;;;;;;;7.07;2.28;;;;;;;;;;5121069;27;20050;-82
2023/10/28 11:06:23;;;;;;;9.27;2.30;;;;;;;;;;5155034;27;20049;-82
2023/10/28 11:08:50;;;;;;;10.23;2.67;;;;;;;;;;5155249;27;20086;-82
2023/10/28 11:11:16;;;;;;;5.18;2.35;;;;;;;;;;5137796;27;20061;-82
2023/10/28 11:13:44;;;;;;;6.38;2.22;;;;;;;;;;5154782;27;20046;-82
2023/10/28 11:16:22;;;;;;;4.97;2.15;;;;;;;;;;5156012;27;20053;-82
2023/10/28 11:18:49;;;;;;;5.00;2.50;;;;;;;;;;5138516;27;20080;-82
2023/10/28 11:21:15;;;;;;;3.95;1.77;;;;;;;;;;5155900;27;20127;-82
2023/10/28 11:23:43;;;;;;;8.43;2.60;;;;;;;;;;5155739;27;20035;-82
2023/10/28 11:26:09;;;;;;;4.85;1.88;;;;;;;;;;5137654;27;20042;-82
2023/10/28 11:28:38;;;;;;;6.88;2.35;;;;;;;;;;5155551;27;20095;-82
2023/10/28 11:31:05;;;;;;;5.28;2.60;;;;;;;;;;5137582;27;20042;-82
2023/10/28 11:33:33;;;;;;;4.93;1.70;;;;;;;;;;5154582;27;20050;-82
2023/10/28 11:35:59;;;;;;;4.18;2.22;;;;;;;;;;5137930;27;20053;-82
2023/10/28 11:38:25;;;;;;;4.93;1.55;;;;;;;;;;5154655;27;20054;-81
2023/10/28 11:41:07;;;;;;;7.72;1.67;;;;;;;;;;5155042;27;20061;-82
2023/10/28 11:43:34;;;;;;;4.28;1.20;;;;;;;;;;5155696;27;20526;-82
2023/10/28 11:46:00;;;;;;;3.05;1.40;;;;;;;;;;5155512;27;20090;-82
2023/10/28 11:48:27;;;;;;;4.70;1.90;;;;;;;;;;5154490;27;20165;-82
2023/10/28 11:50:54;;;;;;;3.92;1.75;;;;;;;;;;5138164;27;20046;-82
2023/10/28 11:53:24;;;;;;;4.97;1.63;;;;;;;;;;5154310;27;20068;-82
2023/10/28 11:55:50;;;;;;;5.32;1.85;;;;;;;;;;5155830;27;20047;-81
2023/10/28 11:58:17;;;;;;;4.18;1.30;;;;;;;;;;5176463;27;20050;-82
2023/10/28 12:01:04;;;;;;;4.57;1.17;;;;;;;;;;5158304;27;20129;-82
2023/10/28 12:03:30;;;;;;;4.18;1.83;;;;;;;;;;5157354;27;20057;-81
2023/10/28 12:05:56;;;;;;;3.20;1.38;;;;;;;;;;5158732;27;20485;-82
2023/10/28 12:08:22;;;;;;;3.50;1.20;;;;;;;;;;5157676;27;20046;-82
2023/10/28 12:10:48;;;;;;;4.00;1.20;;;;;;;;;;5158098;27;20121;-82
2023/10/28 12:13:15;;;;;;;3.95;1.10;;;;;;;;;;5176202;27;20060;-82
2023/10/28 12:15:41;;;;;;;3.10;1.27;;;;;;;;;;5157812;27;20046;-82
2023/10/28 12:18:07;;;;;;;5.35;1.23;;;;;;;;;;5157852;27;20050;-82
2023/10/28 12:20:34;;;;;;;3.45;1.15;;;;;;;;;;5157783;27;20083;-82
2023/10/28 12:23:01;;;;;;;4.90;1.17;;;;;;;;;;5157917;27;20046;-82
2023/10/28 12:25:27;;;;;;;3.15;1.00;;;;;;;;;;5145403;27;20134;-82
2023/10/28 12:27:53;;;;;;;4.15;1.48;;;;;;;;;;5161627;27;20046;-82
2023/10/28 12:30:19;;;;;;;5.65;1.20;;;;;;;;;;5162424;27;20538;-82
2023/10/28 12:32:47;;;;;;;4.03;1.02;;;;;;;;;;5161820;27;20044;-82
2023/10/28 12:35:14;;;;;;;4.53;1.40;;;;;;;;;;5162598;27;20378;-82
2023/10/28 12:37:43;;;;;;;4.35;1.38;;;;;;;;;;5161484;27;20038;-82
2023/10/28 12:40:09;;;;;;;3.97;0.88;;;;;;;;;;5180379;27;20460;-82
2023/10/28 12:42:36;;;;;;;4.50;1.10;;;;;;;;;;5162434;27;20077;-82
2023/10/28 12:45:06;;;;;;;5.00;0.93;;;;;;;;;;5161528;27;20421;-82
2023/10/28 12:47:32;;;;;;;6.00;1.23;;;;;;;;;;5143869;27;20046;-82
2023/10/28 12:50:02;;;;;;;3.72;0.80;;;;;;;;;;5179587;27;20520;-82
2023/10/28 12:52:30;;;;;;;3.88;1.15;;;;;;;;;;5180408;27;20394;-82
2023/10/28 12:54:57;;;;;;;5.30;1.40;;;;;;;;;;5162194;27;20038;-82
2023/10/28 12:57:23;;;;;;;4.90;0.65;;;;;;;;;;5143310;27;20054;-81
2023/10/28 12:59:50;;;;;;;4.13;1.33;;;;;;;;;;5179700;27;20416;-82
2023/10/28 13:02:17;;;;;;;4.65;1.10;;;;;;;;;;5162062;27;20392;-82
2023/10/28 13:04:44;;;;;;;4.60;1.10;;;;;;;;;;5143912;27;20042;-82
2023/10/28 13:07:10;;;;;;;1.40;0.65;;;;;;;;;;5180079;27;20049;-82
2023/10/28 13:09:37;;;;;;;3.55;1.00;;;;;;;;;;5161752;27;20129;-82
2023/10/28 13:12:04;;;;;;;8.50;1.05;;;;;;;;;;5179987;27;20046;-82
2023/10/28 13:14:30;;;;;;;4.55;1.17;;;;;;;;;;5161733;27;20050;-82
2023/10/28 13:16:58;;;;;;;7.13;1.30;;;;;;;;;;5160762;27;20042;-82
2023/10/28 13:19:24;;;;;;;5.32;1.20;;;;;;;;;;5179300;27;20121;-82
2023/10/28 13:21:50;;;;;;;4.18;0.90;;;;;;;;;;5179806;27;20103;-82
2023/10/28 13:24:17;;;;;;;4.20;1.10;;;;;;;;;;5179431;27;20125;-82
2023/10/28 13:26:43;;;;;;;6.65;1.00;;;;;;;;;;5161651;27;20050;-82
2023/10/28 13:29:09;;;;;;;2.83;0.90;;;;;;;;;;5160734;27;20409;-82
2023/10/28 13:31:35;;;;;;;4.45;1.15;;;;;;;;;;5143775;27;20046;-82
2023/10/28 13:34:04;;;;;;;4.18;1.13;;;;;;;;;;5160476;27;20046;-82
2023/10/28 13:36:31;;;;;;;2.20;0.80;;;;;;;;;;5158984;27;20054;-82
2023/10/28 13:38:57;;;;;;;5.72;0.95;;;;;;;;;;5160596;27;20035;-82
2023/10/28 13:41:24;;;;;;;3.63;0.85;;;;;;;;;;5160286;27;20115;-82
2023/10/28 13:43:50;;;;;;;4.55;1.02;;;;;;;;;;5160529;27;20050;-82
2023/10/28 13:46:16;;;;;;;7.88;1.08;;;;;;;;;;5160763;27;20049;-82
2023/10/28 13:48:43;;;;;;;4.63;1.00;;;;;;;;;;5178451;27;20477;-83
2023/10/28 13:51:09;;;;;;;4.55;1.08;;;;;;;;;;5161115;27;20045;-81
2023/10/28 13:53:35;;;;;;;5.75;0.98;;;;;;;;;;5160770;27;20045;-82
2023/10/28 13:56:01;;;;;;;2.38;0.82;;;;;;;;;;5160016;27;20058;-82
2023/10/28 13:58:28;;;;;;;5.20;1.25;;;;;;;;;;5161091;27;20415;-82
2023/10/28 14:00:54;;;;;;;9.85;1.25;;;;;;;;;;5160863;27;20401;-82
2023/10/28 14:03:22;;;;;;;2.95;1.00;;;;;;;;;;5160061;27;20093;-81
2023/10/28 14:05:49;;;;;;;6.43;1.10;;;;;;;;;;5160036;27;20046;-82
2023/10/28 14:08:16;;;;;;;5.93;0.88;;;;;;;;;;5159693;27;20050;-82
2023/10/28 14:10:46;;;;;;;4.97;1.10;;;;;;;;;;5159870;27;20057;-82
2023/10/28 14:13:12;;;;;;;11.20;1.05;;;;;;;;;;5143439;27;20074;-82
2023/10/28 14:15:42;;;;;;;3.83;0.63;;;;;;;;;;5159828;27;20050;-82
2023/10/28 14:18:09;;;;;;;6.35;1.00;;;;;;;;;;5159456;27;20042;-82
2023/10/28 14:20:35;;;;;;;5.18;0.93;;;;;;;;;;5159706;27;20050;-82
2023/10/28 14:23:01;;;;;;;4.45;1.00;;;;;;;;;;5142364;27;20042;-82
2023/10/28 14:25:27;;;;;;;2.95;0.80;;;;;;;;;;5177948;27;20054;-82
2023/10/28 14:27:54;;;;;;;4.78;0.95;;;;;;;;;;5142254;27;20423;-81
2023/10/28 14:30:20;;;;;;;6.93;1.75;;;;;;;;;;5125235;27;20405;-82